sensor_id;sensor_type;location;lat;lon;timestamp;pressure;altitude;pressure_sealevel;temperature;humidity
66668;BME280;57205;51.438;-2.006;2023-05-02T00:01:36;101631.16;;;9.60;100.00
66668;BME280;57205;51.438;-2.006;2023-05-02T00:04:02;101636.84;;;9.64;100.00
66668;BME280;57205;51.438;-2.006;2023-05-02T00:06:29;101630.94;;;9.62;100.00
66668;BME280;57205;51.438;-2.006;2023-05-02T00:08:55;101638.34;;;9.60;100.00
66668;BME280;57205;51.438;-2.006;2023-05-02T00:11:21;101636.97;;;9.57;100.00
66668;BME280;57205;51.438;-2.006;2023-05-02T00:13:47;101629.75;;;9.58;100.00
66668;BME280;57205;51.438;-2.006;2023-05-02T00:16:12;101628.94;;;9.57;100.00
66668;BME280;57205;51.438;-2.006;2023-05-02T00:18:38;101632.19;;;9.59;100.00
66668;BME280;57205;51.438;-2.006;2023-05-02T00:21:03;101624.53;;;9.63;100.00
66668;BME280;57205;51.438;-2.006;2023-05-02T00:23:30;101623.50;;;9.64;100.00
66668;BME280;57205;51.438;-2.006;2023-05-02T00:25:55;101619.75;;;9.65;100.00
66668;BME280;57205;51.438;-2.006;2023-05-02T00:28:21;101621.63;;;9.64;100.00
66668;BME280;57205;51.438;-2.006;2023-05-02T00:30:48;101634.63;;;9.61;100.00
66668;BME280;57205;51.438;-2.006;2023-05-02T00:33:13;101630.94;;;9.62;100.00
66668;BME280;57205;51.438;-2.006;2023-05-02T00:35:40;101628.69;;;9.59;100.00
66668;BME280;57205;51.438;-2.006;2023-05-02T00:38:05;101628.34;;;9.55;100.00
66668;BME280;57205;51.438;-2.006;2023-05-02T00:40:42;101634.19;;;9.52;100.00
66668;BME280;57205;51.438;-2.006;2023-05-02T00:43:08;101631.16;;;9.49;100.00
66668;BME280;57205;51.438;-2.006;2023-05-02T00:45:33;101641.69;;;9.44;100.00
66668;BME280;57205;51.438;-2.006;2023-05-02T00:47:58;101638.81;;;9.34;100.00
66668;BME280;57205;51.438;-2.006;2023-05-02T00:50:26;101639.97;;;9.26;100.00
66668;BME280;57205;51.438;-2.006;2023-05-02T00:52:54;101644.84;;;9.18;100.00
66668;BME280;57205;51.438;-2.006;2023-05-02T00:55:19;101632.84;;;9.09;100.00
66668;BME280;57205;51.438;-2.006;2023-05-02T00:57:44;101634.34;;;9.05;100.00
66668;BME280;57205;51.438;-2.006;2023-05-02T01:00:12;101632.72;;;9.04;100.00
66668;BME280;57205;51.438;-2.006;2023-05-02T01:02:54;101632.72;;;9.04;100.00
66668;BME280;57205;51.438;-2.006;2023-05-02T01:05:28;101641.53;;;9.04;100.00
66668;BME280;57205;51.438;-2.006;2023-05-02T01:08:23;101652.66;;;9.01;100.00
66668;BME280;57205;51.438;-2.006;2023-05-02T01:13:26;101645.59;;;8.95;100.00
66668;BME280;57205;51.438;-2.006;2023-05-02T01:15:53;101653.59;;;8.95;100.00
66668;BME280;57205;51.438;-2.006;2023-05-02T01:18:22;101662.41;;;8.96;100.00
66668;BME280;57205;51.438;-2.006;2023-05-02T01:20:54;101662.78;;;8.99;100.00
66668;BME280;57205;51.438;-2.006;2023-05-02T01:23:32;101663.13;;;9.03;100.00
66668;BME280;57205;51.438;-2.006;2023-05-02T01:26:09;101661.41;;;9.08;100.00
66668;BME280;57205;51.438;-2.006;2023-05-02T01:28:54;101654.78;;;9.11;100.00
66668;BME280;57205;51.438;-2.006;2023-05-02T01:31:23;101660.84;;;9.18;100.00
66668;BME280;57205;51.438;-2.006;2023-05-02T01:33:50;101666.31;;;9.23;100.00
66668;BME280;57205;51.438;-2.006;2023-05-02T01:36:16;101662.25;;;9.32;100.00
66668;BME280;57205;51.438;-2.006;2023-05-02T01:38:43;101654.94;;;9.39;100.00
66668;BME280;57205;51.438;-2.006;2023-05-02T01:41:09;101656.69;;;9.45;100.00
66668;BME280;57205;51.438;-2.006;2023-05-02T01:43:36;101658.22;;;9.52;100.00
66668;BME280;57205;51.438;-2.006;2023-05-02T01:46:06;101650.56;;;9.56;100.00
66668;BME280;57205;51.438;-2.006;2023-05-02T01:48:34;101642.66;;;9.61;100.00
66668;BME280;57205;51.438;-2.006;2023-05-02T01:51:01;101640.44;;;9.58;100.00
66668;BME280;57205;51.438;-2.006;2023-05-02T01:53:30;101648.94;;;9.55;100.00
66668;BME280;57205;51.438;-2.006;2023-05-02T01:55:58;101646.72;;;9.52;100.00
66668;BME280;57205;51.438;-2.006;2023-05-02T01:58:26;101647.19;;;9.49;100.00
66668;BME280;57205;51.438;-2.006;2023-05-02T02:00:52;101652.19;;;9.45;100.00
66668;BME280;57205;51.438;-2.006;2023-05-02T02:03:18;101652.84;;;9.41;100.00
66668;BME280;57205;51.438;-2.006;2023-05-02T02:05:45;101648.22;;;9.36;100.00
66668;BME280;57205;51.438;-2.006;2023-05-02T02:08:11;101649.72;;;9.32;100.00
66668;BME280;57205;51.438;-2.006;2023-05-02T02:10:42;101654.47;;;9.30;100.00
66668;BME280;57205;51.438;-2.006;2023-05-02T02:13:38;101654.72;;;9.29;100.00
66668;BME280;57205;51.438;-2.006;2023-05-02T02:16:10;101662.59;;;9.24;100.00
66668;BME280;57205;51.438;-2.006;2023-05-02T02:18:38;101660.97;;;9.23;100.00
66668;BME280;57205;51.438;-2.006;2023-05-02T02:21:08;101655.94;;;9.15;100.00
66668;BME280;57205;51.438;-2.006;2023-05-02T02:23:37;101654.19;;;9.09;100.00
66668;BME280;57205;51.438;-2.006;2023-05-02T02:26:05;101660.47;;;9.03;100.00
66668;BME280;57205;51.438;-2.006;2023-05-02T02:28:33;101657.66;;;8.98;100.00
66668;BME280;57205;51.438;-2.006;2023-05-02T02:30:58;101665.88;;;8.96;100.00
66668;BME280;57205;51.438;-2.006;2023-05-02T02:33:28;101674.72;;;8.97;100.00
66668;BME280;57205;51.438;-2.006;2023-05-02T02:36:23;101661.84;;;8.94;100.00
66668;BME280;57205;51.438;-2.006;2023-05-02T02:38:54;101676.09;;;8.88;100.00
66668;BME280;57205;51.438;-2.006;2023-05-02T02:41:35;101683.94;;;8.82;100.00
66668;BME280;57205;51.438;-2.006;2023-05-02T02:46:52;101687.72;;;8.63;100.00
66668;BME280;57205;51.438;-2.006;2023-05-02T02:52:27;101685.50;;;8.42;100.00
66668;BME280;57205;51.438;-2.006;2023-05-02T02:55:23;101686.63;;;8.35;100.00
66668;BME280;57205;51.438;-2.006;2023-05-02T02:58:00;101699.34;;;8.33;100.00
66668;BME280;57205;51.438;-2.006;2023-05-02T03:00:27;101696.31;;;8.29;100.00
66668;BME280;57205;51.438;-2.006;2023-05-02T03:02:54;101699.84;;;8.23;100.00
66668;BME280;57205;51.438;-2.006;2023-05-02T03:05:21;101707.69;;;8.18;100.00
66668;BME280;57205;51.438;-2.006;2023-05-02T03:07:47;101708.16;;;8.15;100.00
66668;BME280;57205;51.438;-2.006;2023-05-02T03:10:13;101718.22;;;8.13;100.00
66668;BME280;57205;51.438;-2.006;2023-05-02T03:12:38;101717.84;;;8.10;100.00
66668;BME280;57205;51.438;-2.006;2023-05-02T03:17:54;101710.34;;;8.00;100.00
66668;BME280;57205;51.438;-2.006;2023-05-02T03:20:19;101720.25;;;7.93;100.00
66668;BME280;57205;51.438;-2.006;2023-05-02T03:22:44;101718.47;;;7.87;100.00
66668;BME280;57205;51.438;-2.006;2023-05-02T03:25:10;101725.25;;;7.83;100.00
66668;BME280;57205;51.438;-2.006;2023-05-02T03:27:36;101722.22;;;7.79;100.00
66668;BME280;57205;51.438;-2.006;2023-05-02T03:30:01;101726.56;;;7.74;100.00
66668;BME280;57205;51.438;-2.006;2023-05-02T03:32:26;101729.69;;;7.71;100.00
66668;BME280;57205;51.438;-2.006;2023-05-02T03:34:52;101728.72;;;7.65;100.00
66668;BME280;57205;51.438;-2.006;2023-05-02T03:37:22;101731.41;;;7.59;100.00
66668;BME280;57205;51.438;-2.006;2023-05-02T03:39:48;101726.34;;;7.51;100.00
66668;BME280;57205;51.438;-2.006;2023-05-02T03:42:13;101732.34;;;7.46;100.00
66668;BME280;57205;51.438;-2.006;2023-05-02T03:44:39;101734.41;;;7.44;100.00
66668;BME280;57205;51.438;-2.006;2023-05-02T03:47:04;101743.22;;;7.45;100.00
66668;BME280;57205;51.438;-2.006;2023-05-02T03:49:29;101740.09;;;7.48;100.00
66668;BME280;57205;51.438;-2.006;2023-05-02T03:51:55;101735.38;;;7.50;100.00
66668;BME280;57205;51.438;-2.006;2023-05-02T03:54:20;101736.41;;;7.49;100.00
66668;BME280;57205;51.438;-2.006;2023-05-02T03:56:46;101738.91;;;7.44;100.00
66668;BME280;57205;51.438;-2.006;2023-05-02T03:59:12;101748.53;;;7.45;100.00
66668;BME280;57205;51.438;-2.006;2023-05-02T04:01:38;101748.53;;;7.45;100.00
66668;BME280;57205;51.438;-2.006;2023-05-02T04:04:03;101746.06;;;7.43;100.00
66668;BME280;57205;51.438;-2.006;2023-05-02T04:06:29;101748.94;;;7.42;100.00
66668;BME280;57205;51.438;-2.006;2023-05-02T04:08:56;101753.81;;;7.51;100.00
66668;BME280;57205;51.438;-2.006;2023-05-02T04:11:22;101762.66;;;7.70;100.00
66668;BME280;57205;51.438;-2.006;2023-05-02T04:13:48;101766.88;;;7.84;100.00
66668;BME280;57205;51.438;-2.006;2023-05-02T04:16:13;101766.81;;;7.90;100.00
66668;BME280;57205;51.438;-2.006;2023-05-02T04:18:38;101761.41;;;7.97;100.00
66668;BME280;57205;51.438;-2.006;2023-05-02T04:21:06;101763.56;;;8.07;100.00
66668;BME280;57205;51.438;-2.006;2023-05-02T04:23:32;101763.44;;;8.20;100.00
66668;BME280;57205;51.438;-2.006;2023-05-02T04:25:57;101769.97;;;8.24;100.00
66668;BME280;57205;51.438;-2.006;2023-05-02T04:28:23;101769.50;;;8.33;100.00
66668;BME280;57205;51.438;-2.006;2023-05-02T04:30:49;101770.69;;;8.37;100.00
66668;BME280;57205;51.438;-2.006;2023-05-02T04:33:14;101779.56;;;8.49;100.00
66668;BME280;57205;51.438;-2.006;2023-05-02T04:35:40;101788.34;;;8.56;100.00
66668;BME280;57205;51.438;-2.006;2023-05-02T04:38:05;101782.78;;;8.58;100.00
66668;BME280;57205;51.438;-2.006;2023-05-02T04:40:32;101787.44;;;8.62;100.00
66668;BME280;57205;51.438;-2.006;2023-05-02T04:42:57;101795.59;;;8.67;100.00
66668;BME280;57205;51.438;-2.006;2023-05-02T04:45:24;101796.41;;;8.68;100.00
66668;BME280;57205;51.438;-2.006;2023-05-02T04:47:49;101801.53;;;8.69;100.00
66668;BME280;57205;51.438;-2.006;2023-05-02T04:50:15;101794.69;;;8.73;100.00
66668;BME280;57205;51.438;-2.006;2023-05-02T04:52:40;101795.88;;;8.77;100.00
66668;BME280;57205;51.438;-2.006;2023-05-02T04:55:06;101799.97;;;8.80;100.00
66668;BME280;57205;51.438;-2.006;2023-05-02T04:57:32;101801.34;;;8.82;100.00
66668;BME280;57205;51.438;-2.006;2023-05-02T04:59:57;101800.56;;;8.82;100.00
66668;BME280;57205;51.438;-2.006;2023-05-02T05:02:22;101807.75;;;8.81;100.00
66668;BME280;57205;51.438;-2.006;2023-05-02T05:04:49;101805.06;;;8.81;100.00
66668;BME280;57205;51.438;-2.006;2023-05-02T05:07:15;101807.16;;;8.79;100.00
66668;BME280;57205;51.438;-2.006;2023-05-02T05:09:40;101802.41;;;8.81;100.00
66668;BME280;57205;51.438;-2.006;2023-05-02T05:12:06;101810.34;;;8.88;100.00
66668;BME280;57205;51.438;-2.006;2023-05-02T05:14:32;101806.03;;;8.87;100.00
66668;BME280;57205;51.438;-2.006;2023-05-02T05:16:57;101805.56;;;8.90;100.00
66668;BME280;57205;51.438;-2.006;2023-05-02T05:19:23;101800.84;;;8.92;100.00
66668;BME280;57205;51.438;-2.006;2023-05-02T05:21:49;101802.47;;;8.93;100.00
66668;BME280;57205;51.438;-2.006;2023-05-02T05:24:15;101802.25;;;8.95;100.00
66668;BME280;57205;51.438;-2.006;2023-05-02T05:26:40;101809.44;;;8.94;100.00
66668;BME280;57205;51.438;-2.006;2023-05-02T05:29:06;101810.63;;;8.98;100.00
66668;BME280;57205;51.438;-2.006;2023-05-02T05:31:32;101809.81;;;8.98;100.00
66668;BME280;57205;51.438;-2.006;2023-05-02T05:33:57;101823.38;;;8.96;100.00
66668;BME280;57205;51.438;-2.006;2023-05-02T05:36:23;101823.38;;;8.96;100.00
66668;BME280;57205;51.438;-2.006;2023-05-02T05:38:49;101822.72;;;9.01;100.00
66668;BME280;57205;51.438;-2.006;2023-05-02T05:41:15;101815.97;;;8.98;100.00
66668;BME280;57205;51.438;-2.006;2023-05-02T05:43:40;101819.47;;;8.99;100.00
66668;BME280;57205;51.438;-2.006;2023-05-02T05:46:05;101822.25;;;9.04;100.00
66668;BME280;57205;51.438;-2.006;2023-05-02T05:48:31;101832.28;;;9.08;100.00
66668;BME280;57205;51.438;-2.006;2023-05-02T05:50:56;101828.56;;;9.09;100.00
66668;BME280;57205;51.438;-2.006;2023-05-02T05:53:22;101834.94;;;9.08;100.00
66668;BME280;57205;51.438;-2.006;2023-05-02T05:55:47;101826.34;;;9.06;100.00
66668;BME280;57205;51.438;-2.006;2023-05-02T05:58:13;101840.53;;;9.07;100.00
66668;BME280;57205;51.438;-2.006;2023-05-02T06:00:39;101840.34;;;9.02;100.00
66668;BME280;57205;51.438;-2.006;2023-05-02T06:03:05;101841.78;;;9.04;100.00
66668;BME280;57205;51.438;-2.006;2023-05-02T06:05:31;101849.56;;;9.06;100.00
66668;BME280;57205;51.438;-2.006;2023-05-02T06:07:57;101858.22;;;9.01;100.00
66668;BME280;57205;51.438;-2.006;2023-05-02T06:10:23;101856.59;;;9.00;100.00
66668;BME280;57205;51.438;-2.006;2023-05-02T06:12:48;101867.22;;;9.07;100.00
66668;BME280;57205;51.438;-2.006;2023-05-02T06:15:14;101866.06;;;9.14;100.00
66668;BME280;57205;51.438;-2.006;2023-05-02T06:17:39;101872.38;;;9.20;100.00
66668;BME280;57205;51.438;-2.006;2023-05-02T06:20:05;101880.97;;;9.22;100.00
66668;BME280;57205;51.438;-2.006;2023-05-02T06:22:31;101877.41;;;9.28;100.00
66668;BME280;57205;51.438;-2.006;2023-05-02T06:24:56;101878.59;;;9.32;100.00
66668;BME280;57205;51.438;-2.006;2023-05-02T06:27:22;101883.94;;;9.32;100.00
66668;BME280;57205;51.438;-2.006;2023-05-02T06:29:50;101879.19;;;9.34;100.00
66668;BME280;57205;51.438;-2.006;2023-05-02T06:32:15;101878.31;;;9.40;100.00
66668;BME280;57205;51.438;-2.006;2023-05-02T06:34:41;101879.63;;;9.49;100.00
66668;BME280;57205;51.438;-2.006;2023-05-02T06:37:06;101883.91;;;9.50;100.00
66668;BME280;57205;51.438;-2.006;2023-05-02T06:39:32;101880.34;;;9.56;100.00
66668;BME280;57205;51.438;-2.006;2023-05-02T06:41:58;101876.75;;;9.62;100.00
66668;BME280;57205;51.438;-2.006;2023-05-02T06:44:23;101882.81;;;9.69;100.00
66668;BME280;57205;51.438;-2.006;2023-05-02T06:46:48;101886.34;;;9.81;100.00
66668;BME280;57205;51.438;-2.006;2023-05-02T06:49:15;101889.97;;;9.86;100.00
66668;BME280;57205;51.438;-2.006;2023-05-02T06:51:40;101884.53;;;9.93;100.00
66668;BME280;57205;51.438;-2.006;2023-05-02T06:54:05;101886.16;;;9.94;100.00
66668;BME280;57205;51.438;-2.006;2023-05-02T06:56:33;101883.63;;;9.99;100.00
66668;BME280;57205;51.438;-2.006;2023-05-02T06:58:58;101883.88;;;10.09;100.00
66668;BME280;57205;51.438;-2.006;2023-05-02T07:01:24;101877.28;;;10.12;100.00
66668;BME280;57205;51.438;-2.006;2023-05-02T07:03:49;101889.97;;;10.16;100.00
66668;BME280;57205;51.438;-2.006;2023-05-02T07:06:15;101889.22;;;10.09;100.00
66668;BME280;57205;51.438;-2.006;2023-05-02T07:08:40;101889.81;;;10.11;100.00
66668;BME280;57205;51.438;-2.006;2023-05-02T07:11:06;101900.53;;;10.11;100.00
66668;BME280;57205;51.438;-2.006;2023-05-02T07:13:31;101901.94;;;10.14;100.00
66668;BME280;57205;51.438;-2.006;2023-05-02T07:15:56;101884.50;;;10.23;100.00
66668;BME280;57205;51.438;-2.006;2023-05-02T07:18:22;101886.50;;;10.27;100.00
66668;BME280;57205;51.438;-2.006;2023-05-02T07:20:48;101894.16;;;10.35;100.00
66668;BME280;57205;51.438;-2.006;2023-05-02T07:23:13;101891.72;;;10.34;100.00
66668;BME280;57205;51.438;-2.006;2023-05-02T07:25:39;101890.19;;;10.26;100.00
66668;BME280;57205;51.438;-2.006;2023-05-02T07:28:05;101899.03;;;10.15;100.00
66668;BME280;57205;51.438;-2.006;2023-05-02T07:30:30;101889.91;;;10.05;100.00
66668;BME280;57205;51.438;-2.006;2023-05-02T07:32:56;101897.09;;;10.04;100.00
66668;BME280;57205;51.438;-2.006;2023-05-02T07:35:21;101901.56;;;10.10;100.00
66668;BME280;57205;51.438;-2.006;2023-05-02T07:37:47;101902.28;;;10.17;100.00
66668;BME280;57205;51.438;-2.006;2023-05-02T07:40:12;101902.31;;;10.29;100.00
66668;BME280;57205;51.438;-2.006;2023-05-02T07:42:38;101899.75;;;10.34;100.00
66668;BME280;57205;51.438;-2.006;2023-05-02T07:45:05;101892.19;;;10.31;100.00
66668;BME280;57205;51.438;-2.006;2023-05-02T07:47:31;101887.19;;;10.34;100.00
66668;BME280;57205;51.438;-2.006;2023-05-02T07:49:56;101893.81;;;10.43;100.00
66668;BME280;57205;51.438;-2.006;2023-05-02T07:52:22;101881.97;;;10.51;100.00
66668;BME280;57205;51.438;-2.006;2023-05-02T07:54:48;101886.75;;;10.60;100.00
66668;BME280;57205;51.438;-2.006;2023-05-02T07:57:14;101897.22;;;10.73;100.00
66668;BME280;57205;51.438;-2.006;2023-05-02T07:59:39;101901.59;;;10.79;100.00
66668;BME280;57205;51.438;-2.006;2023-05-02T08:02:05;101898.94;;;10.79;100.00
66668;BME280;57205;51.438;-2.006;2023-05-02T08:04:32;101893.47;;;10.86;100.00
66668;BME280;57205;51.438;-2.006;2023-05-02T08:06:57;101901.84;;;10.78;100.00
66668;BME280;57205;51.438;-2.006;2023-05-02T08:09:23;101910.56;;;10.85;100.00
66668;BME280;57205;51.438;-2.006;2023-05-02T08:11:48;101909.88;;;11.01;100.00
66668;BME280;57205;51.438;-2.006;2023-05-02T08:14:14;101906.94;;;11.03;100.00
66668;BME280;57205;51.438;-2.006;2023-05-02T08:16:40;101909.16;;;11.06;100.00
66668;BME280;57205;51.438;-2.006;2023-05-02T08:19:06;101916.59;;;11.15;100.00
66668;BME280;57205;51.438;-2.006;2023-05-02T08:21:31;101906.34;;;11.24;100.00
66668;BME280;57205;51.438;-2.006;2023-05-02T08:23:57;101906.53;;;11.34;100.00
66668;BME280;57205;51.438;-2.006;2023-05-02T08:26:23;101911.09;;;11.33;100.00
66668;BME280;57205;51.438;-2.006;2023-05-02T08:28:50;101909.53;;;11.37;100.00
66668;BME280;57205;51.438;-2.006;2023-05-02T08:31:16;101904.44;;;11.36;100.00
66668;BME280;57205;51.438;-2.006;2023-05-02T08:33:42;101907.78;;;11.43;100.00
66668;BME280;57205;51.438;-2.006;2023-05-02T08:36:12;101899.38;;;11.51;100.00
66668;BME280;57205;51.438;-2.006;2023-05-02T08:38:38;101894.44;;;11.59;100.00
66668;BME280;57205;51.438;-2.006;2023-05-02T08:41:09;101903.19;;;11.66;100.00
66668;BME280;57205;51.438;-2.006;2023-05-02T08:43:37;101902.16;;;11.84;100.00
66668;BME280;57205;51.438;-2.006;2023-05-02T08:46:04;101898.03;;;11.93;100.00
66668;BME280;57205;51.438;-2.006;2023-05-02T08:48:32;101901.28;;;11.95;100.00
66668;BME280;57205;51.438;-2.006;2023-05-02T08:51:00;101897.66;;;12.01;100.00
66668;BME280;57205;51.438;-2.006;2023-05-02T08:53:27;101896.44;;;12.09;100.00
66668;BME280;57205;51.438;-2.006;2023-05-02T08:55:53;101902.13;;;12.12;100.00
66668;BME280;57205;51.438;-2.006;2023-05-02T08:58:19;101904.81;;;12.12;100.00
66668;BME280;57205;51.438;-2.006;2023-05-02T09:00:46;101914.41;;;12.08;100.00
66668;BME280;57205;51.438;-2.006;2023-05-02T09:05:41;101910.25;;;12.17;100.00
66668;BME280;57205;51.438;-2.006;2023-05-02T09:08:07;101913.03;;;12.22;100.00
66668;BME280;57205;51.438;-2.006;2023-05-02T09:10:36;101917.72;;;12.15;100.00
66668;BME280;57205;51.438;-2.006;2023-05-02T09:15:57;101907.50;;;12.12;100.00
66668;BME280;57205;51.438;-2.006;2023-05-02T09:18:31;101921.81;;;12.18;100.00
66668;BME280;57205;51.438;-2.006;2023-05-02T09:20:58;101927.75;;;12.20;100.00
66668;BME280;57205;51.438;-2.006;2023-05-02T09:23:49;101929.78;;;12.29;100.00
66668;BME280;57205;51.438;-2.006;2023-05-02T09:26:28;101927.19;;;12.34;100.00
66668;BME280;57205;51.438;-2.006;2023-05-02T09:28:57;101931.00;;;12.38;100.00
66668;BME280;57205;51.438;-2.006;2023-05-02T09:31:25;101937.03;;;12.45;100.00
66668;BME280;57205;51.438;-2.006;2023-05-02T09:33:51;101940.34;;;12.52;100.00
66668;BME280;57205;51.438;-2.006;2023-05-02T09:36:18;101945.41;;;12.49;100.00
66668;BME280;57205;51.438;-2.006;2023-05-02T09:38:45;101948.97;;;12.54;100.00
66668;BME280;57205;51.438;-2.006;2023-05-02T09:41:11;101945.19;;;12.67;100.00
66668;BME280;57205;51.438;-2.006;2023-05-02T09:43:38;101950.88;;;12.70;100.00
66668;BME280;57205;51.438;-2.006;2023-05-02T09:46:06;101953.78;;;12.86;100.00
66668;BME280;57205;51.438;-2.006;2023-05-02T09:51:16;101945.53;;;13.09;100.00
66668;BME280;57205;51.438;-2.006;2023-05-02T09:53:42;101946.00;;;13.22;100.00
66668;BME280;57205;51.438;-2.006;2023-05-02T09:56:08;101961.31;;;13.22;100.00
66668;BME280;57205;51.438;-2.006;2023-05-02T09:58:34;101956.56;;;13.29;100.00
66668;BME280;57205;51.438;-2.006;2023-05-02T10:00:59;101953.38;;;13.32;100.00
66668;BME280;57205;51.438;-2.006;2023-05-02T10:03:26;101951.00;;;13.35;100.00
66668;BME280;57205;51.438;-2.006;2023-05-02T10:05:52;101947.94;;;13.48;100.00
66668;BME280;57205;51.438;-2.006;2023-05-02T10:08:19;101941.53;;;13.76;100.00
66668;BME280;57205;51.438;-2.006;2023-05-02T10:10:56;101935.22;;;13.92;100.00
66668;BME280;57205;51.438;-2.006;2023-05-02T10:13:24;101942.91;;;14.05;100.00
66668;BME280;57205;51.438;-2.006;2023-05-02T10:18:28;101939.41;;;14.31;100.00
66668;BME280;57205;51.438;-2.006;2023-05-02T10:21:00;101951.88;;;14.42;100.00
66668;BME280;57205;51.438;-2.006;2023-05-02T10:23:29;101971.63;;;14.53;100.00
66668;BME280;57205;51.438;-2.006;2023-05-02T10:25:57;101968.03;;;14.42;100.00
66668;BME280;57205;51.438;-2.006;2023-05-02T10:28:26;101966.38;;;14.36;100.00
66668;BME280;57205;51.438;-2.006;2023-05-02T10:30:53;101958.84;;;14.38;100.00
66668;BME280;57205;51.438;-2.006;2023-05-02T10:33:20;101966.22;;;14.21;100.00
66668;BME280;57205;51.438;-2.006;2023-05-02T10:35:46;101964.88;;;14.24;100.00
66668;BME280;57205;51.438;-2.006;2023-05-02T10:38:18;101974.22;;;14.16;100.00
66668;BME280;57205;51.438;-2.006;2023-05-02T10:40:53;101968.25;;;14.09;100.00
66668;BME280;57205;51.438;-2.006;2023-05-02T10:43:22;101970.06;;;14.04;100.00
66668;BME280;57205;51.438;-2.006;2023-05-02T10:45:49;101976.88;;;14.11;100.00
66668;BME280;57205;51.438;-2.006;2023-05-02T10:48:18;101974.50;;;14.15;100.00
66668;BME280;57205;51.438;-2.006;2023-05-02T10:50:46;101969.06;;;14.10;100.00
66668;BME280;57205;51.438;-2.006;2023-05-02T10:56:11;101977.63;;;14.28;100.00
66668;BME280;57205;51.438;-2.006;2023-05-02T10:58:37;101984.31;;;14.52;100.00
66668;BME280;57205;51.438;-2.006;2023-05-02T11:04:07;101980.69;;;14.74;100.00
66668;BME280;57205;51.438;-2.006;2023-05-02T11:11:47;101975.09;;;14.85;100.00
66668;BME280;57205;51.438;-2.006;2023-05-02T11:24:50;101975.94;;;14.86;100.00
66668;BME280;57205;51.438;-2.006;2023-05-02T11:29:59;101964.69;;;14.99;100.00
66668;BME280;57205;51.438;-2.006;2023-05-02T11:35:24;101961.19;;;14.98;100.00
66668;BME280;57205;51.438;-2.006;2023-05-02T11:38:03;101958.75;;;14.97;100.00
66668;BME280;57205;51.438;-2.006;2023-05-02T11:40:29;101956.44;;;15.15;100.00
66668;BME280;57205;51.438;-2.006;2023-05-02T11:42:57;101946.47;;;15.16;100.00
66668;BME280;57205;51.438;-2.006;2023-05-02T11:45:36;101963.56;;;15.36;100.00
66668;BME280;57205;51.438;-2.006;2023-05-02T11:48:04;101960.53;;;15.85;100.00
66668;BME280;57205;51.438;-2.006;2023-05-02T11:50:31;101959.16;;;15.87;100.00
66668;BME280;57205;51.438;-2.006;2023-05-02T11:52:57;101958.09;;;15.88;100.00
66668;BME280;57205;51.438;-2.006;2023-05-02T11:55:23;101951.91;;;15.98;100.00
66668;BME280;57205;51.438;-2.006;2023-05-02T11:57:48;101943.31;;;16.11;100.00
66668;BME280;57205;51.438;-2.006;2023-05-02T12:00:16;101956.00;;;16.25;100.00
66668;BME280;57205;51.438;-2.006;2023-05-02T12:02:45;101953.03;;;16.47;99.62
66668;BME280;57205;51.438;-2.006;2023-05-02T12:05:13;101953.03;;;16.32;98.95
66668;BME280;57205;51.438;-2.006;2023-05-02T12:07:40;101955.44;;;16.33;99.05
66668;BME280;57205;51.438;-2.006;2023-05-02T12:10:07;101955.97;;;16.15;100.00
66668;BME280;57205;51.438;-2.006;2023-05-02T12:12:33;101952.22;;;16.26;99.97
66668;BME280;57205;51.438;-2.006;2023-05-02T12:15:06;101948.97;;;16.44;99.07
66668;BME280;57205;51.438;-2.006;2023-05-02T12:17:33;101963.06;;;16.56;98.99
66668;BME280;57205;51.438;-2.006;2023-05-02T12:19:59;101952.53;;;16.60;97.39
66668;BME280;57205;51.438;-2.006;2023-05-02T12:22:27;101957.94;;;16.55;96.70
66668;BME280;57205;51.438;-2.006;2023-05-02T12:24:53;101962.22;;;16.36;98.65
66668;BME280;57205;51.438;-2.006;2023-05-02T12:27:18;101959.00;;;16.49;98.19
66668;BME280;57205;51.438;-2.006;2023-05-02T12:29:45;101964.41;;;16.64;98.17
66668;BME280;57205;51.438;-2.006;2023-05-02T12:32:12;101967.66;;;16.66;97.55
66668;BME280;57205;51.438;-2.006;2023-05-02T12:34:39;101969.00;;;16.74;97.32
66668;BME280;57205;51.438;-2.006;2023-05-02T12:37:06;101969.78;;;16.74;97.76
66668;BME280;57205;51.438;-2.006;2023-05-02T12:39:39;101963.56;;;16.94;95.36
66668;BME280;57205;51.438;-2.006;2023-05-02T12:42:24;101956.19;;;17.19;93.74
66668;BME280;57205;51.438;-2.006;2023-05-02T12:44:51;101963.50;;;17.24;92.81
66668;BME280;57205;51.438;-2.006;2023-05-02T12:47:17;101962.09;;;17.26;92.57
66668;BME280;57205;51.438;-2.006;2023-05-02T12:49:50;101965.66;;;17.22;93.32
66668;BME280;57205;51.438;-2.006;2023-05-02T12:52:21;101964.59;;;17.18;93.75
66668;BME280;57205;51.438;-2.006;2023-05-02T12:55:22;101971.25;;;17.45;92.18
66668;BME280;57205;51.438;-2.006;2023-05-02T12:58:03;101963.09;;;17.61;89.51
66668;BME280;57205;51.438;-2.006;2023-05-02T13:00:30;101965.84;;;17.45;90.09
66668;BME280;57205;51.438;-2.006;2023-05-02T13:02:56;101971.28;;;17.40;89.81
66668;BME280;57205;51.438;-2.006;2023-05-02T13:05:21;101974.25;;;17.39;89.29
66668;BME280;57205;51.438;-2.006;2023-05-02T13:07:48;101962.59;;;17.53;88.56
66668;BME280;57205;51.438;-2.006;2023-05-02T13:10:13;101968.78;;;17.59;88.82
66668;BME280;57205;51.438;-2.006;2023-05-02T13:12:39;101966.88;;;17.65;89.28
66668;BME280;57205;51.438;-2.006;2023-05-02T13:15:06;101967.66;;;17.70;89.11
66668;BME280;57205;51.438;-2.006;2023-05-02T13:17:33;101960.28;;;17.81;86.84
66668;BME280;57205;51.438;-2.006;2023-05-02T13:19:58;101957.25;;;17.92;85.84
66668;BME280;57205;51.438;-2.006;2023-05-02T13:22:24;101964.50;;;18.02;84.40
66668;BME280;57205;51.438;-2.006;2023-05-02T13:24:50;101959.84;;;18.07;84.17
66668;BME280;57205;51.438;-2.006;2023-05-02T13:27:16;101964.00;;;18.33;83.72